Anaya — WDE5689 — position and weather

sailwx.info

Track history (hours):
 
Tides and Currents Weather Stations Pressure Air Temp Water Temp Dewpoint Dewpoint Depression Visibility Wind Speed Wind Dir Waves Ship Positions

Anaya

Owner: MKL Holdings, LLC, Bellevue, WA. More information available from US FCC via Universal Licensing System and Coast Guard Vessel Documentation Center.

Last reported at 2017-Jun-17 22:41 UTC. Time now 2017-Jun-22 22:28 UTC.
Position N 50°24' W 125°11'.

Length 25 m; draft 2 m.

Type: Pleasure craft. MMSI: 367370340.

Date/timePositionNaut miles runAvg speedWind from/ knotsBaromVisibWave heightAir tempDewpointWater temp
2017-Jun-17 22:41N 50°24' W 125°11'0 0.0
2017-Jun-17 22:30N 50°24' W 125°11'0 0.0
2017-Jun-17 22:00N 50°24' W 125°11'0 0.0
2017-Jun-17 21:30N 50°24' W 125°11'0 0.0
2017-Jun-17 21:00N 50°24' W 125°11'0 0.0
2017-Jun-17 20:30N 50°24' W 125°11'0 0.0
2017-Jun-17 20:00N 50°24' W 125°11'0 0.0
2017-Jun-17 19:30N 50°24' W 125°11'0 0.0
2017-Jun-17 19:00N 50°24' W 125°11'0 0.0
2017-Jun-17 18:30N 50°24' W 125°11'2 4.2
2017-Jun-17 17:59N 50°23' W 125°09'510.1
2017-Jun-17 17:30N 50°19' W 125°05'5 9.3
2017-Jun-17 17:00N 50°15' W 125°00'510.8
2017-Jun-17 16:30N 50°11' W 124°55'510.6
2017-Jun-17 16:00N 50°06' W 124°52'612.2
2017-Jun-17 15:30N 50°00' W 124°49'612.7
2017-Jun-17 15:00N 49°55' W 124°42'713.1
2017-Jun-17 14:30N 49°50' W 124°35'1312.9
2017-Jun-17 13:30N 49°42' W 124°20'612.8
2017-Jun-17 13:00N 49°38' W 124°12'612.3
2017-Jun-17 12:30N 49°35' W 124°04'32 2.5
2017-Jun-16 23:27N 49°05' W 123°44'812.3
2017-Jun-16 22:49N 48°60' W 123°36'412.2
2017-Jun-16 22:29N 48°57' W 123°32'811.9
2017-Jun-16 21:49N 48°51' W 123°23'311.0
2017-Jun-16 21:30N 48°48' W 123°20'611.5
2017-Jun-16 21:00N 48°44' W 123°14'0 0.9
2017-Jun-16 20:30N 48°44' W 123°14'611.7
2017-Jun-16 20:00N 48°39' W 123°12'  
Track history (hours):
 
Tides and Currents Weather Stations Pressure Air Temp Water Temp Dewpoint Dewpoint Depression Visibility Wind Speed Wind Dir Waves Ship Positions

Anaya

Owner: MKL Holdings, LLC, Bellevue, WA. More information available from US FCC via Universal Licensing System and Coast Guard Vessel Documentation Center.

Last reported at 2017-Jun-17 22:41 UTC. Time now 2017-Jun-22 22:28 UTC.
Position N 50°24' W 125°11'.

Length 25 m; draft 2 m.

Type: Pleasure craft. MMSI: 367370340.

Date/timePositionNaut miles runAvg speedWind from/ knotsBaromVisibWave heightAir tempDewpointWater temp
2017-Jun-17 22:41N 50°24' W 125°11'0 0.0
2017-Jun-17 22:30N 50°24' W 125°11'0 0.0
2017-Jun-17 22:00N 50°24' W 125°11'0 0.0
2017-Jun-17 21:30N 50°24' W 125°11'0 0.0
2017-Jun-17 21:00N 50°24' W 125°11'0 0.0
2017-Jun-17 20:30N 50°24' W 125°11'0 0.0
2017-Jun-17 20:00N 50°24' W 125°11'0 0.0
2017-Jun-17 19:30N 50°24' W 125°11'0 0.0
2017-Jun-17 19:00N 50°24' W 125°11'0 0.0
2017-Jun-17 18:30N 50°24' W 125°11'2 4.2
2017-Jun-17 17:59N 50°23' W 125°09'510.1
2017-Jun-17 17:30N 50°19' W 125°05'5 9.3
2017-Jun-17 17:00N 50°15' W 125°00'510.8
2017-Jun-17 16:30N 50°11' W 124°55'510.6
2017-Jun-17 16:00N 50°06' W 124°52'612.2
2017-Jun-17 15:30N 50°00' W 124°49'612.7
2017-Jun-17 15:00N 49°55' W 124°42'713.1
2017-Jun-17 14:30N 49°50' W 124°35'1312.9
2017-Jun-17 13:30N 49°42' W 124°20'612.8
2017-Jun-17 13:00N 49°38' W 124°12'612.3
2017-Jun-17 12:30N 49°35' W 124°04'32 2.5
2017-Jun-16 23:27N 49°05' W 123°44'812.3
2017-Jun-16 22:49N 48°60' W 123°36'412.2
2017-Jun-16 22:29N 48°57' W 123°32'811.9
2017-Jun-16 21:49N 48°51' W 123°23'311.0
2017-Jun-16 21:30N 48°48' W 123°20'611.5
2017-Jun-16 21:00N 48°44' W 123°14'0 0.9
2017-Jun-16 20:30N 48°44' W 123°14'611.7
2017-Jun-16 20:00N 48°39' W 123°12'  

Dump ship's entire track history